createdAt,value
2023-03-28T00:01:02.771Z,99.90
2023-03-28T00:03:36.482Z,99.90
2023-03-28T00:06:09.717Z,99.90
2023-03-28T00:08:40.643Z,99.90
2023-03-28T00:11:11.531Z,99.90
2023-03-28T00:13:40.019Z,99.90
2023-03-28T00:16:13.176Z,99.90
2023-03-28T00:18:43.556Z,99.90
2023-03-28T00:21:26.996Z,99.90
2023-03-28T00:23:57.145Z,99.90
2023-03-28T00:26:27.064Z,99.90
2023-03-28T00:28:56.115Z,99.90
2023-03-28T00:31:25.105Z,99.90
2023-03-28T00:33:55.567Z,99.90
2023-03-28T00:36:26.608Z,99.90
2023-03-28T00:38:55.104Z,99.90
2023-03-28T00:41:25.085Z,99.90
2023-03-28T00:43:56.104Z,99.90
2023-03-28T00:46:29.843Z,99.90
2023-03-28T00:49:04.581Z,99.90
2023-03-28T00:51:38.756Z,99.90
2023-03-28T00:54:12.039Z,99.90
2023-03-28T00:56:47.329Z,99.90
2023-03-28T00:59:21.207Z,99.90
2023-03-28T01:01:50.126Z,99.90
2023-03-28T01:04:24.457Z,99.90
2023-03-28T01:06:57.301Z,99.90
2023-03-28T01:09:27.057Z,99.90
2023-03-28T01:11:59.689Z,99.90
2023-03-28T01:14:30.314Z,99.90
2023-03-28T01:17:00.724Z,99.90
2023-03-28T01:19:51.621Z,99.90
2023-03-28T01:22:57.090Z,99.90
2023-03-28T01:26:03.432Z,99.90
2023-03-28T01:28:57.548Z,99.90
2023-03-28T01:31:46.431Z,99.90
2023-03-28T01:35:05.637Z,99.90
2023-03-28T01:37:43.596Z,99.90
2023-03-28T01:40:32.585Z,99.90
2023-03-28T01:43:14.362Z,99.90
2023-03-28T01:45:52.207Z,99.90
2023-03-28T01:48:31.463Z,99.90
2023-03-28T01:51:08.106Z,99.90
2023-03-28T01:53:44.268Z,99.90
2023-03-28T01:56:22.178Z,99.90
2023-03-28T01:58:57.128Z,99.90
2023-03-28T02:01:41.344Z,99.90
2023-03-28T02:04:20.527Z,99.90
2023-03-28T02:06:58.616Z,99.90
2023-03-28T02:09:34.931Z,99.90
2023-03-28T02:12:12.313Z,99.90
2023-03-28T02:15:04.255Z,99.90
2023-03-28T02:18:06.978Z,99.90
2023-03-28T02:20:54.919Z,99.90
2023-03-28T02:23:44.748Z,99.90
2023-03-28T02:26:32.295Z,99.90
2023-03-28T02:29:23.596Z,99.90
2023-03-28T02:31:59.105Z,99.90
2023-03-28T02:34:27.483Z,99.90
2023-03-28T02:37:07.284Z,99.90
2023-03-28T02:39:50.030Z,99.90
2023-03-28T02:42:40.921Z,99.90
2023-03-28T02:45:43.463Z,99.90
2023-03-28T02:48:22.157Z,99.90
2023-03-28T02:51:04.165Z,99.90
2023-03-28T02:53:39.029Z,99.90
2023-03-28T02:56:14.748Z,99.90
2023-03-28T02:59:09.922Z,99.90
2023-03-28T03:01:40.961Z,99.90
2023-03-28T03:04:09.873Z,99.90
2023-03-28T03:06:38.200Z,99.90
2023-03-28T03:09:07.029Z,99.90
2023-03-28T03:11:35.317Z,99.90
2023-03-28T03:14:04.895Z,99.90
2023-03-28T03:16:34.542Z,99.90
2023-03-28T03:19:02.926Z,99.90
2023-03-28T03:21:31.291Z,99.90
2023-03-28T03:24:00.125Z,99.90
2023-03-28T03:26:28.548Z,99.90
2023-03-28T03:29:06.169Z,99.90
2023-03-28T03:31:34.742Z,99.90
2023-03-28T03:34:33.860Z,99.90
2023-03-28T03:37:02.416Z,99.90
2023-03-28T03:39:32.141Z,99.90
2023-03-28T03:42:00.461Z,99.90
2023-03-28T03:44:33.759Z,99.90
2023-03-28T03:47:02.342Z,99.90
2023-03-28T03:49:30.768Z,99.90
2023-03-28T03:51:59.839Z,99.90
2023-03-28T03:54:28.019Z,99.90
2023-03-28T03:56:56.252Z,99.90
2023-03-28T03:59:24.696Z,99.90
2023-03-28T04:01:56.761Z,99.90
2023-03-28T04:04:42.577Z,99.90
2023-03-28T04:07:40.439Z,99.90
2023-03-28T04:10:15.326Z,99.90
2023-03-28T04:12:43.709Z,99.90
2023-03-28T04:15:12.603Z,99.90
2023-03-28T04:17:44.031Z,99.90
2023-03-28T04:20:16.075Z,99.90
2023-03-28T04:23:10.793Z,99.90
2023-03-28T04:25:41.949Z,99.90
2023-03-28T04:28:25.000Z,99.90
2023-03-28T04:31:00.000Z,99.90
2023-03-28T04:34:03.463Z,99.90
2023-03-28T04:36:34.265Z,99.90
2023-03-28T04:39:05.550Z,99.90
2023-03-28T04:42:04.487Z,99.90
2023-03-28T04:44:52.829Z,99.90
2023-03-28T04:47:21.587Z,99.90
2023-03-28T04:49:52.672Z,99.90
2023-03-28T04:52:22.292Z,99.90
2023-03-28T04:54:51.471Z,99.90
2023-03-28T04:57:23.474Z,99.90
2023-03-28T04:59:56.080Z,99.90
2023-03-28T05:02:44.797Z,99.90
2023-03-28T05:05:17.806Z,99.90
2023-03-28T05:07:47.061Z,99.90
2023-03-28T05:10:16.514Z,99.90
2023-03-28T05:12:45.344Z,99.90
2023-03-28T05:15:22.182Z,99.90
2023-03-28T05:18:20.698Z,99.90
2023-03-28T05:20:50.875Z,99.90
2023-03-28T05:23:19.961Z,99.90
2023-03-28T05:25:52.439Z,99.90
2023-03-28T05:28:21.672Z,99.90
2023-03-28T05:30:52.829Z,99.90
2023-03-28T05:33:21.650Z,99.90
2023-03-28T05:35:53.601Z,99.90
2023-03-28T05:38:22.188Z,99.90
2023-03-28T05:40:56.346Z,99.90
2023-03-28T05:43:24.491Z,99.90
2023-03-28T05:45:52.935Z,99.90
2023-03-28T05:48:24.211Z,99.90
2023-03-28T05:50:54.347Z,99.90
2023-03-28T05:53:23.028Z,99.90
2023-03-28T05:55:51.784Z,99.90
2023-03-28T05:58:20.244Z,99.90
2023-03-28T06:00:48.613Z,99.90
2023-03-28T06:03:17.863Z,99.90
2023-03-28T06:05:48.105Z,99.90
2023-03-28T06:08:23.778Z,99.90
2023-03-28T06:10:52.202Z,99.90
2023-03-28T06:13:28.209Z,99.90
2023-03-28T06:15:56.912Z,99.90
2023-03-28T06:18:32.996Z,99.90
2023-03-28T06:21:01.695Z,99.90
2023-03-28T06:23:31.775Z,99.90
2023-03-28T06:26:01.486Z,99.90
2023-03-28T06:28:35.511Z,99.90
2023-03-28T06:31:22.454Z,99.90
2023-03-28T06:33:51.410Z,99.90
2023-03-28T06:36:22.216Z,99.90
2023-03-28T06:38:53.577Z,99.90
2023-03-28T06:41:23.903Z,99.90
2023-03-28T06:43:52.202Z,99.90
2023-03-28T06:46:49.585Z,99.90
2023-03-28T06:49:18.642Z,99.90
2023-03-28T06:52:10.365Z,99.90
2023-03-28T06:54:39.919Z,99.90
2023-03-28T06:57:08.287Z,99.90
2023-03-28T06:59:38.827Z,99.90
2023-03-28T07:02:11.379Z,99.90
2023-03-28T07:04:40.770Z,99.90
2023-03-28T07:07:09.632Z,99.90
2023-03-28T07:09:39.517Z,99.90
2023-03-28T07:12:21.353Z,99.90
2023-03-28T07:14:49.566Z,99.90
2023-03-28T07:17:17.733Z,99.90
2023-03-28T07:19:48.976Z,99.90
2023-03-28T07:22:17.353Z,99.90
2023-03-28T07:24:45.710Z,99.90
2023-03-28T07:27:16.926Z,99.90
2023-03-28T07:29:48.942Z,99.90
2023-03-28T07:32:18.311Z,99.90
2023-03-28T07:34:47.410Z,99.90
2023-03-28T07:37:21.877Z,99.90
2023-03-28T07:39:58.637Z,99.90
2023-03-28T07:42:28.870Z,99.90
2023-03-28T07:44:58.423Z,99.90
2023-03-28T07:47:26.763Z,99.90
2023-03-28T07:49:55.108Z,99.90
2023-03-28T07:52:23.884Z,99.90
2023-03-28T07:54:52.408Z,99.90
2023-03-28T07:57:20.853Z,99.90
2023-03-28T08:00:04.872Z,99.90
2023-03-28T08:02:44.696Z,99.90
2023-03-28T08:05:14.435Z,99.90
2023-03-28T08:07:46.000Z,99.90
2023-03-28T08:10:15.247Z,99.90
2023-03-28T08:12:43.559Z,99.90
2023-03-28T08:15:13.515Z,99.90
2023-03-28T08:17:41.836Z,99.90
2023-03-28T08:20:12.013Z,99.90
2023-03-28T08:22:59.211Z,99.90
2023-03-28T08:25:42.639Z,99.90
2023-03-28T08:28:12.388Z,99.90
2023-03-28T08:30:42.771Z,99.90
2023-03-28T08:33:11.695Z,99.90
2023-03-28T08:35:40.134Z,99.90
2023-03-28T08:38:16.336Z,99.90
2023-03-28T08:40:50.964Z,99.90
2023-03-28T08:43:47.699Z,99.90
2023-03-28T08:46:21.871Z,99.90
2023-03-28T08:48:52.673Z,99.90
2023-03-28T08:51:26.751Z,99.90
2023-03-28T08:54:08.109Z,99.90
2023-03-28T08:56:44.123Z,99.90
2023-03-28T08:59:16.072Z,99.90
2023-03-28T09:01:47.347Z,99.90
2023-03-28T09:04:24.064Z,99.90
2023-03-28T09:07:04.186Z,99.90
2023-03-28T09:09:45.492Z,99.90
2023-03-28T09:12:43.726Z,99.90
2023-03-28T09:15:34.785Z,99.90
2023-03-28T09:18:22.538Z,99.90
2023-03-28T09:20:55.028Z,99.90
2023-03-28T09:23:59.162Z,99.90
2023-03-28T09:26:49.383Z,99.90
2023-03-28T09:29:25.946Z,99.90
2023-03-28T09:32:00.881Z,99.90
2023-03-28T09:34:39.594Z,99.90
2023-03-28T09:37:18.787Z,99.90
2023-03-28T09:39:53.441Z,99.90
2023-03-28T09:42:33.377Z,99.90
2023-03-28T09:45:32.402Z,99.90
2023-03-28T09:48:01.897Z,99.90
2023-03-28T09:50:37.255Z,99.90
2023-03-28T09:53:06.696Z,99.90
2023-03-28T09:55:36.470Z,99.90
2023-03-28T09:58:09.548Z,99.90
2023-03-28T10:00:57.843Z,99.90
2023-03-28T10:03:54.141Z,99.90
2023-03-28T10:06:31.618Z,99.90
2023-03-28T10:09:27.111Z,99.90
2023-03-28T10:12:03.653Z,99.90
2023-03-28T10:14:37.007Z,99.90
2023-03-28T10:17:13.017Z,99.90
2023-03-28T10:19:49.367Z,99.90
2023-03-28T10:22:26.251Z,99.90
2023-03-28T10:24:56.685Z,99.90
2023-03-28T10:27:28.646Z,99.90
2023-03-28T10:29:58.282Z,99.90
2023-03-28T10:32:32.713Z,99.60
2023-03-28T10:35:27.963Z,99.30
2023-03-28T10:38:07.740Z,98.00
2023-03-28T10:41:04.943Z,99.00
2023-03-28T10:43:51.155Z,96.60
2023-03-28T10:46:32.797Z,97.40
2023-03-28T10:49:20.180Z,96.80
2023-03-28T10:51:58.768Z,97.00
2023-03-28T10:54:48.298Z,97.70
2023-03-28T10:57:41.463Z,95.70
2023-03-28T11:00:17.488Z,96.20
2023-03-28T11:03:08.104Z,91.10
2023-03-28T11:06:05.690Z,90.30
2023-03-28T11:08:51.447Z,84.80
2023-03-28T11:11:47.901Z,88.40
2023-03-28T11:14:24.173Z,85.40
2023-03-28T11:16:59.088Z,82.00
2023-03-28T11:20:18.990Z,74.30
2023-03-28T11:23:06.389Z,71.10
2023-03-28T11:25:56.754Z,67.80
2023-03-28T11:28:58.859Z,68.00
2023-03-28T11:31:33.059Z,64.60
2023-03-28T11:34:05.710Z,65.60
2023-03-28T11:36:37.217Z,68.10
2023-03-28T11:39:14.638Z,67.10
2023-03-28T11:41:46.019Z,66.80
2023-03-28T11:44:50.376Z,67.60
2023-03-28T11:47:24.685Z,67.90
2023-03-28T11:50:08.065Z,63.40
2023-03-28T11:53:03.294Z,59.90
2023-03-28T11:55:42.564Z,60.30
2023-03-28T11:58:26.120Z,53.20
2023-03-28T12:01:07.353Z,48.20
2023-03-28T12:03:43.009Z,39.70
2023-03-28T12:06:18.242Z,43.70
2023-03-28T12:08:53.925Z,42.00
2023-03-28T12:11:29.076Z,43.30
2023-03-28T12:14:26.951Z,43.10
2023-03-28T12:16:59.781Z,39.60
2023-03-28T12:19:34.847Z,36.90
2023-03-28T12:22:14.116Z,36.90
2023-03-28T12:24:55.911Z,33.30
2023-03-28T12:27:55.034Z,31.30
2023-03-28T12:30:33.934Z,31.40
2023-03-28T12:33:14.899Z,33.70
2023-03-28T12:35:57.881Z,31.70
2023-03-28T12:38:33.469Z,30.90
2023-03-28T12:41:23.371Z,30.90
2023-03-28T12:43:56.043Z,29.90
2023-03-28T12:46:31.676Z,31.00
2023-03-28T12:49:05.253Z,31.00
2023-03-28T12:51:38.773Z,30.80
2023-03-28T12:54:22.694Z,31.60
2023-03-28T12:57:02.885Z,31.70
2023-03-28T13:00:06.757Z,31.00
2023-03-28T13:03:07.069Z,27.20
2023-03-28T13:05:54.098Z,29.40
2023-03-28T13:08:29.486Z,28.10
2023-03-28T13:11:09.935Z,28.00
2023-03-28T13:13:45.323Z,29.30
2023-03-28T13:16:17.075Z,29.90
2023-03-28T13:18:49.981Z,29.40
2023-03-28T13:21:44.808Z,28.30
2023-03-28T13:24:33.574Z,27.20
2023-03-28T13:27:06.394Z,27.10
2023-03-28T13:29:47.498Z,29.20
2023-03-28T13:32:17.695Z,27.30
2023-03-28T13:34:50.800Z,29.40
2023-03-28T13:37:23.384Z,28.60
2023-03-28T13:39:53.421Z,27.90
2023-03-28T13:42:31.072Z,26.90
2023-03-28T13:45:02.505Z,26.10
2023-03-28T13:47:36.598Z,26.30
2023-03-28T13:50:15.342Z,25.60
2023-03-28T13:52:45.311Z,25.70
2023-03-28T13:55:21.888Z,24.80
2023-03-28T13:57:51.386Z,24.40
2023-03-28T14:00:23.838Z,24.30
2023-03-28T14:02:54.151Z,22.90
2023-03-28T14:05:25.094Z,22.80
2023-03-28T14:07:56.860Z,21.90
2023-03-28T14:10:33.502Z,21.50
2023-03-28T14:13:03.972Z,22.60
2023-03-28T14:15:36.268Z,23.10
2023-03-28T14:18:05.265Z,23.90
2023-03-28T14:20:35.040Z,24.40
2023-03-28T14:23:06.755Z,24.00
2023-03-28T14:25:37.258Z,23.00
2023-03-28T14:28:09.934Z,22.50
2023-03-28T14:30:42.727Z,22.20
2023-03-28T14:33:21.219Z,20.90
2023-03-28T14:36:00.424Z,19.00
2023-03-28T14:38:33.284Z,20.30
2023-03-28T14:41:07.951Z,20.40
2023-03-28T14:43:37.008Z,19.10
2023-03-28T14:46:10.101Z,20.50
2023-03-28T14:48:40.333Z,20.10
2023-03-28T14:51:12.360Z,20.20
2023-03-28T14:53:47.380Z,20.90
2023-03-28T14:56:19.652Z,21.60
2023-03-28T14:58:50.218Z,21.90
2023-03-28T15:01:22.978Z,22.10
2023-03-28T15:03:55.039Z,21.90
2023-03-28T15:06:24.456Z,21.70
2023-03-28T15:08:56.318Z,22.20
2023-03-28T15:11:29.172Z,22.30
2023-03-28T15:14:02.780Z,22.00
2023-03-28T15:16:32.683Z,21.90
2023-03-28T15:19:06.899Z,21.30
2023-03-28T15:21:36.686Z,21.60
2023-03-28T15:24:07.811Z,21.50
2023-03-28T15:26:38.594Z,21.80
2023-03-28T15:29:08.752Z,21.50
2023-03-28T15:31:41.141Z,21.20
2023-03-28T15:34:11.408Z,21.40
2023-03-28T15:36:50.043Z,21.40
2023-03-28T15:39:25.370Z,20.70
2023-03-28T15:41:56.164Z,21.20
2023-03-28T15:44:28.428Z,21.10
2023-03-28T15:46:59.572Z,21.20
2023-03-28T15:49:28.283Z,21.60
2023-03-28T15:52:00.800Z,21.90
2023-03-28T15:54:32.217Z,22.10
2023-03-28T15:57:03.173Z,22.10
2023-03-28T15:59:36.033Z,21.90
2023-03-28T16:02:30.023Z,21.60
2023-03-28T16:04:59.849Z,22.30
2023-03-28T16:07:33.051Z,22.80
2023-03-28T16:10:02.973Z,24.20
2023-03-28T16:12:33.722Z,24.30
2023-03-28T16:15:31.596Z,25.20
2023-03-28T16:18:08.969Z,25.90
2023-03-28T16:20:46.609Z,26.60
2023-03-28T16:23:15.745Z,26.90
2023-03-28T16:25:45.502Z,27.80
2023-03-28T16:28:17.861Z,27.90
2023-03-28T16:30:47.409Z,28.60
2023-03-28T16:33:16.961Z,29.20
2023-03-28T16:35:45.361Z,29.60
2023-03-28T16:38:13.768Z,30.00
2023-03-28T16:40:42.254Z,31.10
2023-03-28T16:43:13.162Z,30.60
2023-03-28T16:45:47.094Z,30.00
2023-03-28T16:48:15.644Z,30.00
2023-03-28T16:50:51.349Z,29.90
2023-03-28T16:53:20.166Z,30.20
2023-03-28T16:55:48.716Z,30.30
2023-03-28T16:58:18.248Z,30.70
2023-03-28T17:00:48.375Z,30.90
2023-03-28T17:03:17.107Z,32.00
2023-03-28T17:05:45.455Z,32.00
2023-03-28T17:08:13.606Z,32.50
2023-03-28T17:10:45.040Z,33.30
2023-03-28T17:13:13.717Z,33.50
2023-03-28T17:15:43.264Z,33.70
2023-03-28T17:18:11.780Z,34.20
2023-03-28T17:20:40.024Z,34.60
2023-03-28T17:23:08.259Z,34.70
2023-03-28T17:25:48.188Z,35.80
2023-03-28T17:28:20.325Z,36.60
2023-03-28T17:30:49.929Z,36.70
2023-03-28T17:33:18.509Z,37.30
2023-03-28T17:35:47.528Z,38.00
2023-03-28T17:38:16.065Z,39.00
2023-03-28T17:40:47.526Z,39.40
2023-03-28T17:43:15.790Z,39.80
2023-03-28T17:45:44.692Z,40.70
2023-03-28T17:48:15.210Z,41.40
2023-03-28T17:50:52.122Z,42.20
2023-03-28T17:53:21.661Z,42.20
2023-03-28T17:55:50.648Z,42.70
2023-03-28T17:58:19.310Z,43.50
2023-03-28T18:00:47.700Z,43.50
2023-03-28T18:03:17.501Z,44.30
2023-03-28T18:06:12.872Z,44.70
2023-03-28T18:08:42.675Z,44.70
2023-03-28T18:11:14.125Z,44.30
2023-03-28T18:13:42.989Z,44.50
2023-03-28T18:16:13.636Z,45.10
2023-03-28T18:18:43.554Z,45.50
2023-03-28T18:21:12.729Z,44.60
2023-03-28T18:23:41.442Z,44.60
2023-03-28T18:26:10.074Z,44.50
2023-03-28T18:28:40.479Z,44.90
2023-03-28T18:31:10.865Z,45.20
2023-03-28T18:33:39.268Z,46.40
2023-03-28T18:36:10.155Z,47.20
2023-03-28T18:38:39.955Z,48.20
2023-03-28T18:41:09.143Z,48.30
2023-03-28T18:43:38.277Z,47.70
2023-03-28T18:46:08.384Z,47.70
2023-03-28T18:48:37.627Z,47.70
2023-03-28T18:51:07.954Z,47.40
2023-03-28T18:53:38.969Z,47.50
2023-03-28T18:56:08.491Z,47.30
2023-03-28T18:58:38.376Z,47.50
2023-03-28T19:01:08.927Z,47.50
2023-03-28T19:03:40.506Z,47.90
2023-03-28T19:06:10.687Z,47.90
2023-03-28T19:08:40.757Z,48.10
2023-03-28T19:11:11.740Z,48.50
2023-03-28T19:13:40.721Z,48.50
2023-03-28T19:16:11.004Z,48.90
2023-03-28T19:18:40.452Z,49.10
2023-03-28T19:21:10.617Z,49.40
2023-03-28T19:23:40.492Z,49.50
2023-03-28T19:26:10.134Z,49.80
2023-03-28T19:28:39.249Z,50.40
2023-03-28T19:31:09.441Z,50.30
2023-03-28T19:33:40.645Z,50.70
2023-03-28T19:36:09.638Z,51.50
2023-03-28T19:38:40.689Z,52.50
2023-03-28T19:41:15.281Z,52.50
2023-03-28T19:43:44.504Z,52.80
2023-03-28T19:46:18.124Z,55.10
2023-03-28T19:48:46.704Z,55.10
2023-03-28T19:51:15.565Z,55.50
2023-03-28T19:53:45.574Z,55.60
2023-03-28T19:56:14.161Z,56.30
2023-03-28T19:58:42.525Z,56.60
2023-03-28T20:01:10.775Z,57.20
2023-03-28T20:03:39.382Z,57.40
2023-03-28T20:06:09.545Z,57.50
2023-03-28T20:08:38.151Z,58.00
2023-03-28T20:11:11.725Z,58.80
2023-03-28T20:13:41.433Z,58.30
2023-03-28T20:16:11.633Z,59.10
2023-03-28T20:18:40.758Z,59.90
2023-03-28T20:21:11.379Z,60.30
2023-03-28T20:23:40.111Z,61.80
2023-03-28T20:26:18.304Z,62.60
2023-03-28T20:28:49.985Z,62.60
2023-03-28T20:31:19.359Z,63.10
2023-03-28T20:33:48.040Z,62.60
2023-03-28T20:36:16.561Z,63.90
2023-03-28T20:38:45.112Z,65.70
2023-03-28T20:41:14.317Z,66.20
2023-03-28T20:43:47.739Z,67.40
2023-03-28T20:46:19.098Z,67.10
2023-03-28T20:48:52.417Z,68.10
2023-03-28T20:51:22.536Z,69.50
2023-03-28T20:53:54.453Z,69.30
2023-03-28T20:56:24.815Z,70.30
2023-03-28T20:58:55.132Z,69.80
2023-03-28T21:01:26.275Z,69.20
2023-03-28T21:03:58.782Z,68.60
2023-03-28T21:06:29.858Z,68.40
2023-03-28T21:09:00.620Z,67.80
2023-03-28T21:11:30.774Z,67.20
2023-03-28T21:14:01.237Z,66.80
2023-03-28T21:16:31.727Z,66.60
2023-03-28T21:19:00.492Z,66.60
2023-03-28T21:21:29.974Z,66.50
2023-03-28T21:23:58.663Z,66.50
2023-03-28T21:26:38.761Z,66.90
2023-03-28T21:29:09.429Z,67.10
2023-03-28T21:31:38.178Z,67.00
2023-03-28T21:34:07.197Z,67.50
2023-03-28T21:36:35.739Z,67.40
2023-03-28T21:39:04.405Z,68.00
2023-03-28T21:41:32.645Z,68.30
2023-03-28T21:44:00.846Z,68.60
2023-03-28T21:46:30.911Z,68.90
2023-03-28T21:48:59.334Z,70.00
2023-03-28T21:51:27.732Z,70.00
2023-03-28T21:53:56.821Z,69.90
2023-03-28T21:56:25.261Z,71.00
2023-03-28T21:58:53.541Z,72.00
2023-03-28T22:01:21.802Z,71.80
2023-03-28T22:03:51.511Z,71.90
2023-03-28T22:06:20.866Z,73.20
2023-03-28T22:08:52.395Z,73.50
2023-03-28T22:11:27.792Z,74.20
2023-03-28T22:14:01.585Z,75.40
2023-03-28T22:16:31.404Z,75.30
2023-03-28T22:19:01.019Z,76.20
2023-03-28T22:21:31.455Z,77.20
2023-03-28T22:24:02.786Z,78.00
2023-03-28T22:26:31.246Z,78.60
2023-03-28T22:28:59.992Z,79.50
2023-03-28T22:31:29.128Z,80.00
2023-03-28T22:33:57.883Z,80.50
2023-03-28T22:36:28.029Z,80.10
2023-03-28T22:38:57.069Z,79.70
2023-03-28T22:41:25.694Z,80.00
2023-03-28T22:43:54.188Z,79.80
2023-03-28T22:46:22.635Z,79.80
2023-03-28T22:48:54.621Z,79.50
2023-03-28T22:51:25.148Z,79.20
2023-03-28T22:53:55.200Z,79.50
2023-03-28T22:56:25.722Z,79.90
2023-03-28T22:58:53.999Z,79.90
2023-03-28T23:01:25.987Z,79.90
2023-03-28T23:03:54.973Z,79.90
2023-03-28T23:06:23.540Z,79.90
2023-03-28T23:08:52.163Z,79.80
2023-03-28T23:11:22.650Z,79.90
2023-03-28T23:13:51.727Z,80.00
2023-03-28T23:16:20.230Z,79.80
2023-03-28T23:18:49.949Z,80.10
2023-03-28T23:21:18.729Z,80.20
2023-03-28T23:23:47.637Z,80.90
2023-03-28T23:26:17.792Z,81.20
2023-03-28T23:28:47.639Z,81.70
2023-03-28T23:31:16.376Z,81.60
2023-03-28T23:33:46.426Z,82.20
2023-03-28T23:36:15.438Z,82.90
2023-03-28T23:38:43.805Z,83.60
2023-03-28T23:41:12.374Z,83.30
2023-03-28T23:43:41.137Z,83.10
2023-03-28T23:46:10.934Z,83.60
2023-03-28T23:48:39.159Z,84.50
2023-03-28T23:51:09.147Z,84.90
2023-03-28T23:53:37.391Z,85.40
2023-03-28T23:56:07.188Z,85.70
2023-03-28T23:58:35.923Z,85.70
